Missouri River (Missouri), Boonville (06909000)

StateMissouriLatestUnknown (34900 cfs)
RiverMissouri RiverRatingObservedEstimated
Updated2021-01-24 10:30 (22 minutes ago)Flood - The river is flooding. Obstacles can be treacherous or deadly. The river should be avoided at this stage for casual trips and definitely for the inexperienced. Trips should be attempted only with protective gear and equipment.Flood(none)(none)
Discharge34900 cfs (median: 33300 cfs)High - The river is high and potentially dangerous, especially for the young and / or inexperienced. Normal stream obstacles are sometimes difficult to navigate. Extended distances can be attempted, but canoe travel may not be advisable.High(none)(none)
Height5.02 feetGood - Conditions are ideal for a canoe or kayak. Boats typically will drag on fewer than one-quarter of riffles, if at all, and portages are unnecessary or rare. Normal float lengths can be attempted without a problem.Good(none)(none)
TrendFalling (rising over 24 hours)Low - River is low but can still be floated. Some riffles are okay but most come with significant dragging and might need a portage. Float lengths should be reduced to accommodate low flow, dragging, and portages.Low(none)(none)
USGSExternal icon USGS Site (External icon Google Maps)Poor - River is too low to float comfortably. Most or all riffles will drag or must be portaged and some obstacles (such as slick shelf rock) cause undue problems. Avoid the river at this stage for casual paddling trips.Poor(none)(none)

Trending Data

Plot Image

Trips for Missouri River (Missouri), Boonville (06909000)

DateStartEndDistanceConditionDischargeHeightFishingDetails

A total of 0 rows are displayed.

Condition Descriptions

Fishing Conditions

Fish Species

Notes

Classic Trip List

The classic River Trips application is still available for use. It is updated with the new system using a data retrofit. It is no longer maintained. The original River Trips application is no longer updated (as of 1 Dec 2016) but can be checked for errors or for the condition of the data before it was converted to the new system.

Gauge Data Table

ObservationHeightDischargeMaximum
Discharge
Minimum
Discharge
Mean
Discharge
P05P10P20P25P50
(Median)
P75P80P90P95
2021-01-24 10:30 5.02 34900 138000 (1974) 5500 (1963) 39600 15100 19000 23100 25000 33300 45200 50200 68900 110000
2021-01-24 09:30 5.03 35000 138000 (1974) 5500 (1963) 39600 15100 19000 23100 25000 33300 45200 50200 68900 110000
2021-01-24 08:30 5.02 34900 138000 (1974) 5500 (1963) 39600 15100 19000 23100 25000 33300 45200 50200 68900 110000
2021-01-24 07:30 5.02 34900 138000 (1974) 5500 (1963) 39600 15100 19000 23100 25000 33300 45200 50200 68900 110000
2021-01-24 06:30 5.01 34900 138000 (1974) 5500 (1963) 39600 15100 19000 23100 25000 33300 45200 50200 68900 110000
2021-01-24 05:30 5.02 34900 138000 (1974) 5500 (1963) 39600 15100 19000 23100 25000 33300 45200 50200 68900 110000
2021-01-24 04:30 5.03 35000 138000 (1974) 5500 (1963) 39600 15100 19000 23100 25000 33300 45200 50200 68900 110000
2021-01-24 03:30 5.02 34900 138000 (1974) 5500 (1963) 39600 15100 19000 23100 25000 33300 45200 50200 68900 110000
2021-01-24 02:30 4.97 34700 138000 (1974) 5500 (1963) 39600 15100 19000 23100 25000 33300 45200 50200 68900 110000
2021-01-24 01:30 5.03 35000 138000 (1974) 5500 (1963) 39600 15100 19000 23100 25000 33300 45200 50200 68900 110000
2021-01-24 00:30 5.04 35000 138000 (1974) 5500 (1963) 39600 15100 19000 23100 25000 33300 45200 50200 68900 110000
2021-01-23 23:30 5.04 35000 143000 (1973) 6000 (1963) 39500 16000 18800 22700 23100 35000 43600 48500 70200 98800
2021-01-23 22:30 5.04 35000 143000 (1973) 6000 (1963) 39500 16000 18800 22700 23100 35000 43600 48500 70200 98800
2021-01-23 21:30 5.01 34900 143000 (1973) 6000 (1963) 39500 16000 18800 22700 23100 35000 43600 48500 70200 98800
2021-01-23 20:30 5.03 35000 143000 (1973) 6000 (1963) 39500 16000 18800 22700 23100 35000 43600 48500 70200 98800
2021-01-23 19:30 4.94 34600 143000 (1973) 6000 (1963) 39500 16000 18800 22700 23100 35000 43600 48500 70200 98800
2021-01-23 18:30 4.99 34800 143000 (1973) 6000 (1963) 39500 16000 18800 22700 23100 35000 43600 48500 70200 98800
2021-01-23 17:30 4.91 34400 143000 (1973) 6000 (1963) 39500 16000 18800 22700 23100 35000 43600 48500 70200 98800
2021-01-23 16:30 4.89 34400 143000 (1973) 6000 (1963) 39500 16000 18800 22700 23100 35000 43600 48500 70200 98800
2021-01-23 15:30 4.95 34600 143000 (1973) 6000 (1963) 39500 16000 18800 22700 23100 35000 43600 48500 70200 98800
2021-01-23 14:30 5.00 34800 143000 (1973) 6000 (1963) 39500 16000 18800 22700 23100 35000 43600 48500 70200 98800
2021-01-23 13:30 4.99 34800 143000 (1973) 6000 (1963) 39500 16000 18800 22700 23100 35000 43600 48500 70200 98800
2021-01-23 12:30 4.94 34600 143000 (1973) 6000 (1963) 39500 16000 18800 22700 23100 35000 43600 48500 70200 98800
2021-01-23 11:30 5.02 34900 143000 (1973) 6000 (1963) 39500 16000 18800 22700 23100 35000 43600 48500 70200 98800
2021-01-23 10:30 4.97 34700 143000 (1973) 6000 (1963) 39500 16000 18800 22700 23100 35000 43600 48500 70200 98800
2021-01-23 09:30 4.94 34600 143000 (1973) 6000 (1963) 39500 16000 18800 22700 23100 35000 43600 48500 70200 98800
2021-01-23 08:30 5.01 34900 143000 (1973) 6000 (1963) 39500 16000 18800 22700 23100 35000 43600 48500 70200 98800
2021-01-23 07:30 5.02 34900 143000 (1973) 6000 (1963) 39500 16000 18800 22700 23100 35000 43600 48500 70200 98800
2021-01-23 06:30 5.07 35100 143000 (1973) 6000 (1963) 39500 16000 18800 22700 23100 35000 43600 48500 70200 98800
2021-01-23 05:30 5.04 35000 143000 (1973) 6000 (1963) 39500 16000 18800 22700 23100 35000 43600 48500 70200 98800
2021-01-23 04:30 5.08 35200 143000 (1973) 6000 (1963) 39500 16000 18800 22700 23100 35000 43600 48500 70200 98800
2021-01-23 03:30 5.05 35100 143000 (1973) 6000 (1963) 39500 16000 18800 22700 23100 35000 43600 48500 70200 98800
2021-01-23 02:30 5.01 34900 143000 (1973) 6000 (1963) 39500 16000 18800 22700 23100 35000 43600 48500 70200 98800
2021-01-23 01:30 4.97 34700 143000 (1973) 6000 (1963) 39500 16000 18800 22700 23100 35000 43600 48500 70200 98800
2021-01-23 00:30 5.03 35000 143000 (1973) 6000 (1963) 39500 16000 18800 22700 23100 35000 43600 48500 70200 98800
2021-01-22 23:30 5.04 35000 151000 (1973) 5500 (1963) 39000 14900 17400 21600 22800 32800 43000 49600 70600 97000
2021-01-22 22:30 5.06 35100 151000 (1973) 5500 (1963) 39000 14900 17400 21600 22800 32800 43000 49600 70600 97000
2021-01-22 21:30 5.07 35100 151000 (1973) 5500 (1963) 39000 14900 17400 21600 22800 32800 43000 49600 70600 97000
2021-01-22 20:30 5.12 35400 151000 (1973) 5500 (1963) 39000 14900 17400 21600 22800 32800 43000 49600 70600 97000
2021-01-22 19:30 5.19 35700 151000 (1973) 5500 (1963) 39000 14900 17400 21600 22800 32800 43000 49600 70600 97000
2021-01-22 18:30 5.20 35700 151000 (1973) 5500 (1963) 39000 14900 17400 21600 22800 32800 43000 49600 70600 97000
2021-01-22 17:30 5.21 35800 151000 (1973) 5500 (1963) 39000 14900 17400 21600 22800 32800 43000 49600 70600 97000
2021-01-22 16:30 5.18 35600 151000 (1973) 5500 (1963) 39000 14900 17400 21600 22800 32800 43000 49600 70600 97000
2021-01-22 15:30 5.18 35600 151000 (1973) 5500 (1963) 39000 14900 17400 21600 22800 32800 43000 49600 70600 97000
2021-01-22 14:30 5.20 35700 151000 (1973) 5500 (1963) 39000 14900 17400 21600 22800 32800 43000 49600 70600 97000
2021-01-22 13:30 5.24 35900 151000 (1973) 5500 (1963) 39000 14900 17400 21600 22800 32800 43000 49600 70600 97000
2021-01-22 12:30 5.23 35800 151000 (1973) 5500 (1963) 39000 14900 17400 21600 22800 32800 43000 49600 70600 97000
2021-01-22 11:30 5.21 35800 151000 (1973) 5500 (1963) 39000 14900 17400 21600 22800 32800 43000 49600 70600 97000
2021-01-22 10:30 5.23 35800 151000 (1973) 5500 (1963) 39000 14900 17400 21600 22800 32800 43000 49600 70600 97000
2021-01-22 09:30 5.27 36000 151000 (1973) 5500 (1963) 39000 14900 17400 21600 22800 32800 43000 49600 70600 97000
2021-01-22 08:30 5.27 36000 151000 (1973) 5500 (1963) 39000 14900 17400 21600 22800 32800 43000 49600 70600 97000
2021-01-22 07:30 5.32 36300 151000 (1973) 5500 (1963) 39000 14900 17400 21600 22800 32800 43000 49600 70600 97000
2021-01-22 06:30 5.32 36300 151000 (1973) 5500 (1963) 39000 14900 17400 21600 22800 32800 43000 49600 70600 97000
2021-01-22 05:30 5.33 36300 151000 (1973) 5500 (1963) 39000 14900 17400 21600 22800 32800 43000 49600 70600 97000
2021-01-22 04:30 5.34 36300 151000 (1973) 5500 (1963) 39000 14900 17400 21600 22800 32800 43000 49600 70600 97000
2021-01-22 03:30 5.34 36300 151000 (1973) 5500 (1963) 39000 14900 17400 21600 22800 32800 43000 49600 70600 97000
2021-01-22 02:30 5.34 36300 151000 (1973) 5500 (1963) 39000 14900 17400 21600 22800 32800 43000 49600 70600 97000
2021-01-22 01:30 5.35 36400 151000 (1973) 5500 (1963) 39000 14900 17400 21600 22800 32800 43000 49600 70600 97000
2021-01-22 00:30 5.36 36400 151000 (1973) 5500 (1963) 39000 14900 17400 21600 22800 32800 43000 49600 70600 97000
2021-01-21 23:30 5.37 36500 148000 (1973) 6000 (1963) 38600 16200 17600 21700 22600 33100 44000 49600 63700 82100
2021-01-21 22:30 5.38 36500 148000 (1973) 6000 (1963) 38600 16200 17600 21700 22600 33100 44000 49600 63700 82100
2021-01-21 21:30 5.38 36500 148000 (1973) 6000 (1963) 38600 16200 17600 21700 22600 33100 44000 49600 63700 82100
2021-01-21 20:30 5.38 36500 148000 (1973) 6000 (1963) 38600 16200 17600 21700 22600 33100 44000 49600 63700 82100
2021-01-21 19:30 5.38 36500 148000 (1973) 6000 (1963) 38600 16200 17600 21700 22600 33100 44000 49600 63700 82100
2021-01-21 18:30 5.38 36500 148000 (1973) 6000 (1963) 38600 16200 17600 21700 22600 33100 44000 49600 63700 82100
2021-01-21 17:30 5.40 36600 148000 (1973) 6000 (1963) 38600 16200 17600 21700 22600 33100 44000 49600 63700 82100
2021-01-21 16:30 5.41 36700 148000 (1973) 6000 (1963) 38600 16200 17600 21700 22600 33100 44000 49600 63700 82100
2021-01-21 15:30 5.41 36700 148000 (1973) 6000 (1963) 38600 16200 17600 21700 22600 33100 44000 49600 63700 82100
2021-01-21 14:30 5.44 36800 148000 (1973) 6000 (1963) 38600 16200 17600 21700 22600 33100 44000 49600 63700 82100
2021-01-21 13:30 5.44 36800 148000 (1973) 6000 (1963) 38600 16200 17600 21700 22600 33100 44000 49600 63700 82100
2021-01-21 12:30 5.45 36800 148000 (1973) 6000 (1963) 38600 16200 17600 21700 22600 33100 44000 49600 63700 82100
2021-01-21 11:30 5.47 36900 148000 (1973) 6000 (1963) 38600 16200 17600 21700 22600 33100 44000 49600 63700 82100
2021-01-21 10:30 5.48 37000 148000 (1973) 6000 (1963) 38600 16200 17600 21700 22600 33100 44000 49600 63700 82100
2021-01-21 09:30 5.48 37000 148000 (1973) 6000 (1963) 38600 16200 17600 21700 22600 33100 44000 49600 63700 82100
2021-01-21 08:30 5.49 37000 148000 (1973) 6000 (1963) 38600 16200 17600 21700 22600 33100 44000 49600 63700 82100
2021-01-21 07:30 5.49 37000 148000 (1973) 6000 (1963) 38600 16200 17600 21700 22600 33100 44000 49600 63700 82100
2021-01-21 06:30 5.49 37000 148000 (1973) 6000 (1963) 38600 16200 17600 21700 22600 33100 44000 49600 63700 82100
2021-01-21 05:30 5.49 37000 148000 (1973) 6000 (1963) 38600 16200 17600 21700 22600 33100 44000 49600 63700 82100
2021-01-21 04:30 5.50 37100 148000 (1973) 6000 (1963) 38600 16200 17600 21700 22600 33100 44000 49600 63700 82100
2021-01-21 03:30 5.50 37100 148000 (1973) 6000 (1963) 38600 16200 17600 21700 22600 33100 44000 49600 63700 82100
2021-01-21 02:30 5.51 37100 148000 (1973) 6000 (1963) 38600 16200 17600 21700 22600 33100 44000 49600 63700 82100
2021-01-21 01:30 5.51 37100 148000 (1973) 6000 (1963) 38600 16200 17600 21700 22600 33100 44000 49600 63700 82100
2021-01-21 00:30 5.53 37200 148000 (1973) 6000 (1963) 38600 16200 17600 21700 22600 33100 44000 49600 63700 82100

A total of 83 rows are displayed for years 1958 through 2020.